createdAt,value
2018-06-29T00:00:53.372Z,94235.27
2018-06-29T00:03:24.921Z,94230.45
2018-06-29T00:05:55.833Z,94231.64
2018-06-29T00:08:26.473Z,94232.81
2018-06-29T00:10:56.921Z,94228.54
2018-06-29T00:13:28.339Z,94232.08
2018-06-29T00:15:58.325Z,94224.73
2018-06-29T00:18:29.201Z,94223.48
2018-06-29T00:20:59.238Z,94216.56
2018-06-29T00:23:31.208Z,94220.14
2018-06-29T00:26:02.193Z,94227.48
2018-06-29T00:28:32.505Z,94223.95
2018-06-29T00:31:02.696Z,94225.42
2018-06-29T00:33:33.966Z,94223.86
2018-06-29T00:36:06.008Z,94229.59
2018-06-29T00:38:36.425Z,94234.80
2018-06-29T00:41:09.745Z,94232.13
2018-06-29T00:43:40.497Z,94224.83
2018-06-29T00:46:12.447Z,94208.10
2018-06-29T00:48:42.646Z,94207.14
2018-06-29T00:51:13.478Z,94217.11
2018-06-29T00:53:44.336Z,94207.78
2018-06-29T00:56:14.333Z,94198.39
2018-06-29T00:58:44.873Z,94210.45
2018-06-29T01:01:15.525Z,94211.45
2018-06-29T01:03:45.783Z,94210.36
2018-06-29T01:06:15.936Z,94214.47
2018-06-29T01:08:46.272Z,94214.61
2018-06-29T01:11:17.399Z,94213.19
2018-06-29T01:13:48.092Z,94212.34
2018-06-29T01:16:18.526Z,94208.68
2018-06-29T01:18:49.149Z,94201.35
2018-06-29T01:21:19.408Z,94211.16
2018-06-29T01:23:49.708Z,94215.28
2018-06-29T01:26:21.493Z,94217.89
2018-06-29T01:28:52.012Z,94222.13
2018-06-29T01:31:22.094Z,94210.13
2018-06-29T01:33:52.690Z,94207.65
2018-06-29T01:36:23.574Z,94214.95
2018-06-29T01:38:53.938Z,94208.30
2018-06-29T01:41:24.519Z,94209.38
2018-06-29T01:43:55.678Z,94204.34
2018-06-29T01:46:26.049Z,94212.05
2018-06-29T01:48:56.441Z,94201.79
2018-06-29T01:51:26.312Z,94205.70
2018-06-29T01:53:56.297Z,94206.20
2018-06-29T01:56:27.080Z,94200.19
2018-06-29T01:58:57.327Z,94204.05
2018-06-29T02:01:27.745Z,94197.40
2018-06-29T02:03:57.809Z,94192.64
2018-06-29T02:06:28.531Z,94195.28
2018-06-29T02:08:58.638Z,94191.87
2018-06-29T02:11:28.693Z,94190.94
2018-06-29T02:13:58.990Z,94168.05
2018-06-29T02:16:29.536Z,94198.48
2018-06-29T02:18:59.918Z,94189.20
2018-06-29T02:21:30.137Z,94194.94
2018-06-29T02:24:00.448Z,94189.28
2018-06-29T02:26:31.108Z,94185.84
2018-06-29T02:29:01.125Z,94195.41
2018-06-29T02:31:31.241Z,94194.80
2018-06-29T02:34:02.256Z,94191.94
2018-06-29T02:36:32.500Z,94201.74
2018-06-29T02:39:02.482Z,94201.16
2018-06-29T02:41:32.800Z,94210.97
2018-06-29T02:44:03.068Z,94203.31
2018-06-29T02:46:35.036Z,94202.35
2018-06-29T02:49:05.875Z,94201.70
2018-06-29T02:51:36.706Z,94204.02
2018-06-29T02:54:07.530Z,94205.15
2018-06-29T02:56:37.729Z,94201.42
2018-06-29T02:59:08.585Z,94202.03
2018-06-29T03:01:39.308Z,94209.66
2018-06-29T03:04:11.016Z,94197.95
2018-06-29T03:06:41.252Z,94199.39
2018-06-29T03:09:12.015Z,94204.22
2018-06-29T03:11:42.194Z,94200.27
2018-06-29T03:14:13.020Z,94204.50
2018-06-29T03:16:43.799Z,94204.66
2018-06-29T03:19:14.219Z,94203.19
2018-06-29T03:21:45.577Z,94203.67
2018-06-29T03:24:15.598Z,94200.48
2018-06-29T03:26:45.913Z,94202.94
2018-06-29T03:29:16.179Z,94192.16
2018-06-29T03:31:46.945Z,94198.53
2018-06-29T03:34:18.125Z,94197.98
2018-06-29T03:36:48.723Z,94195.21
2018-06-29T03:39:20.621Z,94202.84
2018-06-29T03:41:51.118Z,94197.95
2018-06-29T03:44:22.803Z,94190.94
2018-06-29T03:46:54.039Z,94194.31
2018-06-29T03:49:24.571Z,94199.52
2018-06-29T03:51:55.766Z,94206.20
2018-06-29T03:54:26.172Z,94204.72
2018-06-29T03:56:57.817Z,94201.64
2018-06-29T03:59:28.276Z,94206.78
2018-06-29T04:01:58.624Z,94212.84
2018-06-29T04:04:28.984Z,94208.23
2018-06-29T04:06:59.008Z,94207.88
2018-06-29T04:09:29.857Z,94207.81
2018-06-29T04:12:00.289Z,94202.83
2018-06-29T04:14:30.434Z,94196.09
2018-06-29T04:17:00.561Z,94201.00
2018-06-29T04:19:30.811Z,94202.69
2018-06-29T04:22:01.813Z,94205.60
2018-06-29T04:24:33.000Z,94198.05
2018-06-29T04:27:04.856Z,94208.98
2018-06-29T04:29:35.807Z,94203.41
2018-06-29T04:32:06.764Z,94196.39
2018-06-29T04:34:37.355Z,94193.03
2018-06-29T04:37:10.121Z,94196.91
2018-06-29T04:39:40.334Z,94196.26
2018-06-29T04:42:11.417Z,94196.55
2018-06-29T04:44:41.697Z,94188.17
2018-06-29T04:47:12.213Z,94193.76
2018-06-29T04:49:43.912Z,94194.94
2018-06-29T04:52:15.077Z,94193.11
2018-06-29T04:54:46.138Z,94196.26
2018-06-29T04:57:16.988Z,94197.73
2018-06-29T04:59:47.769Z,94193.46
2018-06-29T05:02:18.449Z,94201.66
2018-06-29T05:04:49.304Z,94194.55
2018-06-29T05:07:19.964Z,94196.19
2018-06-29T05:09:52.211Z,94198.45
2018-06-29T05:12:23.348Z,94200.12
2018-06-29T05:14:54.460Z,94192.56
2018-06-29T05:17:25.399Z,94205.17
2018-06-29T05:19:55.764Z,94203.94
2018-06-29T05:22:26.857Z,94206.05
2018-06-29T05:24:57.160Z,94206.20
2018-06-29T05:27:27.925Z,94196.31
2018-06-29T05:29:59.471Z,94199.56
2018-06-29T05:32:30.018Z,94194.58
2018-06-29T05:35:00.581Z,94200.79
2018-06-29T05:37:31.374Z,94199.98
2018-06-29T05:40:01.565Z,94203.78
2018-06-29T05:42:32.795Z,94204.45
2018-06-29T05:45:03.484Z,94207.00
2018-06-29T05:47:34.444Z,94209.89
2018-06-29T05:50:06.068Z,94203.14
2018-06-29T05:52:38.407Z,94201.45
2018-06-29T05:55:09.333Z,94205.34
2018-06-29T05:57:39.818Z,94204.46
2018-06-29T06:00:10.545Z,94198.47
2018-06-29T06:02:41.169Z,94199.63
2018-06-29T06:05:12.065Z,94201.83
2018-06-29T06:07:42.208Z,94209.88
2018-06-29T06:10:12.801Z,94219.11
2018-06-29T06:12:43.517Z,94217.80
2018-06-29T06:15:14.480Z,94210.11
2018-06-29T06:17:46.656Z,94216.87
2018-06-29T06:20:17.300Z,94211.65
2018-06-29T06:22:47.752Z,94212.45
2018-06-29T06:25:18.180Z,94211.55
2018-06-29T06:27:49.288Z,94209.83
2018-06-29T06:30:19.584Z,94219.56
2018-06-29T06:32:50.507Z,94223.16
2018-06-29T06:35:21.108Z,94217.88
2018-06-29T06:37:51.902Z,94225.88
2018-06-29T06:40:22.908Z,94226.03
2018-06-29T06:42:53.374Z,94221.63
2018-06-29T06:45:24.089Z,94217.71
2018-06-29T06:47:54.928Z,94224.56
2018-06-29T06:50:25.363Z,94222.50
2018-06-29T06:52:55.863Z,94232.58
2018-06-29T06:55:26.419Z,94234.20
2018-06-29T06:57:56.685Z,94233.03
2018-06-29T07:00:27.147Z,94228.45
2018-06-29T07:02:57.946Z,94230.72
2018-06-29T07:05:28.157Z,94233.20
2018-06-29T07:07:58.806Z,94225.44
2018-06-29T07:10:28.995Z,94234.16
2018-06-29T07:13:00.753Z,94225.88
2018-06-29T07:15:31.785Z,94233.95
2018-06-29T07:18:02.639Z,94232.53
2018-06-29T07:20:33.457Z,94224.98
2018-06-29T07:23:04.096Z,94219.56
2018-06-29T07:25:35.849Z,94222.81
2018-06-29T07:28:06.814Z,94218.52
2018-06-29T07:30:37.900Z,94230.66
2018-06-29T07:33:08.328Z,94218.27
2018-06-29T07:35:38.823Z,94214.45
2018-06-29T07:38:09.384Z,94223.28
2018-06-29T07:40:39.400Z,94223.56
2018-06-29T07:43:09.956Z,94225.96
2018-06-29T07:45:40.188Z,94219.53
2018-06-29T07:48:11.428Z,94220.30
2018-06-29T07:50:42.119Z,94217.67
2018-06-29T07:53:12.488Z,94225.16
2018-06-29T07:55:42.985Z,94221.91
2018-06-29T07:58:13.665Z,94219.08
2018-06-29T08:00:44.303Z,94222.84
2018-06-29T08:03:15.084Z,94227.52
2018-06-29T08:05:45.912Z,94233.02
2018-06-29T08:08:16.708Z,94239.53
2018-06-29T08:10:47.511Z,94239.04
2018-06-29T08:13:18.475Z,94233.24
2018-06-29T08:15:48.863Z,94243.00
2018-06-29T08:18:19.012Z,94240.05
2018-06-29T08:20:49.246Z,94230.00
2018-06-29T08:23:20.463Z,94239.19
2018-06-29T08:25:51.209Z,94231.64
2018-06-29T08:28:21.530Z,94238.31
2018-06-29T08:30:52.157Z,94246.43
2018-06-29T08:33:22.813Z,94241.38
2018-06-29T08:35:53.854Z,94245.70
2018-06-29T08:38:24.533Z,94244.09
2018-06-29T08:40:54.910Z,94247.17
2018-06-29T08:43:25.750Z,94238.02
2018-06-29T08:45:57.074Z,94240.57
2018-06-29T08:48:28.032Z,94239.39
2018-06-29T08:51:00.076Z,94239.26
2018-06-29T08:53:31.569Z,94232.77
2018-06-29T08:56:02.714Z,94242.98
2018-06-29T08:58:33.672Z,94234.45
2018-06-29T09:01:04.541Z,94241.20
2018-06-29T09:03:35.624Z,94248.89
2018-06-29T09:06:06.736Z,94245.44
2018-06-29T09:08:37.095Z,94244.46
2018-06-29T09:11:07.529Z,94248.42
2018-06-29T09:13:38.749Z,94244.92
2018-06-29T09:16:09.275Z,94259.45
2018-06-29T09:18:40.356Z,94256.77
2018-06-29T09:21:11.194Z,94254.98
2018-06-29T09:23:41.615Z,94255.07
2018-06-29T09:26:11.686Z,94246.54
2018-06-29T09:28:42.960Z,94250.41
2018-06-29T09:31:13.182Z,94255.07
2018-06-29T09:33:43.575Z,94250.12
2018-06-29T09:36:15.860Z,94256.16
2018-06-29T09:38:46.259Z,94246.25
2018-06-29T09:41:16.610Z,94255.34
2018-06-29T09:43:47.063Z,94258.23
2018-06-29T09:46:17.372Z,94257.89
2018-06-29T09:48:48.550Z,94251.02
2018-06-29T09:51:18.741Z,94252.14
2018-06-29T09:53:48.954Z,94255.89
2018-06-29T09:56:19.319Z,94255.52
2018-06-29T09:58:50.057Z,94251.84
2018-06-29T10:01:20.587Z,94256.55
2018-06-29T10:03:51.016Z,94253.69
2018-06-29T10:06:21.260Z,94258.05
2018-06-29T10:08:51.735Z,94253.42
2018-06-29T10:11:21.909Z,94255.92
2018-06-29T10:13:52.217Z,94257.25
2018-06-29T10:16:23.150Z,94261.45
2018-06-29T10:18:54.213Z,94260.88
2018-06-29T10:21:24.836Z,94264.55
2018-06-29T10:23:54.976Z,94258.41
2018-06-29T10:26:25.284Z,94265.58
2018-06-29T10:28:55.438Z,94263.31
2018-06-29T10:31:26.563Z,94268.66
2018-06-29T10:33:56.613Z,94267.19
2018-06-29T10:36:27.413Z,94270.59
2018-06-29T10:39:00.402Z,94276.67
2018-06-29T10:41:30.693Z,94276.31
2018-06-29T10:44:01.421Z,94277.25
2018-06-29T10:46:31.888Z,94268.28
2018-06-29T10:49:02.370Z,94275.69
2018-06-29T10:51:33.823Z,94279.52
2018-06-29T10:54:04.153Z,94262.14
2018-06-29T10:56:35.009Z,94269.02
2018-06-29T10:59:05.285Z,94269.17
2018-06-29T11:01:35.461Z,94275.52
2018-06-29T11:04:08.470Z,94278.11
2018-06-29T11:06:39.617Z,94269.54
2018-06-29T11:09:15.984Z,94266.55
2018-06-29T11:11:47.080Z,94271.32
2018-06-29T11:14:17.565Z,94274.11
2018-06-29T11:16:47.991Z,94274.59
2018-06-29T11:19:19.723Z,94274.03
2018-06-29T11:21:50.312Z,94272.48
2018-06-29T11:24:20.471Z,94277.25
2018-06-29T11:26:50.749Z,94277.77
2018-06-29T11:29:22.255Z,94273.67
2018-06-29T11:31:53.304Z,94264.22
2018-06-29T11:34:23.711Z,94265.89
2018-06-29T11:36:54.160Z,94260.94
2018-06-29T11:39:24.435Z,94260.02
2018-06-29T11:41:54.606Z,94262.71
2018-06-29T11:44:24.801Z,94247.53
2018-06-29T11:46:55.431Z,94257.59
2018-06-29T11:49:25.797Z,94251.34
2018-06-29T11:51:56.384Z,94252.29
2018-06-29T11:54:26.834Z,94257.14
2018-06-29T11:56:57.759Z,94257.89
2018-06-29T11:59:27.831Z,94261.49
2018-06-29T12:01:58.474Z,94248.34
2018-06-29T12:04:28.520Z,94249.66
2018-06-29T12:06:58.765Z,94254.88
2018-06-29T12:09:29.423Z,94257.90
2018-06-29T12:11:59.657Z,94251.94
2018-06-29T12:14:30.045Z,94258.17
2018-06-29T12:17:00.269Z,94255.10
2018-06-29T12:19:31.302Z,94255.77
2018-06-29T12:22:01.737Z,94258.75
2018-06-29T12:24:32.421Z,94260.02
2018-06-29T12:27:03.064Z,94262.14
2018-06-29T12:29:34.363Z,94262.57
2018-06-29T12:32:04.490Z,94256.39
2018-06-29T12:34:34.776Z,94257.11
2018-06-29T12:37:05.168Z,94261.36
2018-06-29T12:39:35.290Z,94264.61
2018-06-29T12:42:05.528Z,94256.25
2018-06-29T12:44:36.192Z,94257.42
2018-06-29T12:47:06.557Z,94253.55
2018-06-29T12:49:36.534Z,94254.44
2018-06-29T12:52:07.073Z,94253.33
2018-06-29T12:54:36.999Z,94256.48
2018-06-29T12:57:06.932Z,94249.98
2018-06-29T12:59:37.329Z,94254.58
2018-06-29T13:02:07.801Z,94236.30
2018-06-29T13:04:38.029Z,94243.65
2018-06-29T13:07:08.295Z,94243.79
2018-06-29T13:09:38.762Z,94237.52
2018-06-29T13:12:08.655Z,94237.14
2018-06-29T13:14:39.145Z,94239.45
2018-06-29T13:17:09.003Z,94231.08
2018-06-29T13:19:38.856Z,94235.68
2018-06-29T13:22:09.056Z,94238.61
2018-06-29T13:24:38.992Z,94236.48
2018-06-29T13:27:09.362Z,94243.41
2018-06-29T13:29:39.247Z,94246.04
2018-06-29T13:32:09.105Z,94241.78
2018-06-29T13:34:39.097Z,94241.78
2018-06-29T13:37:10.289Z,94240.11
2018-06-29T13:39:40.529Z,94246.75
2018-06-29T13:42:11.168Z,94241.25
2018-06-29T13:44:41.099Z,94235.83
2018-06-29T13:47:11.605Z,94232.59
2018-06-29T13:49:41.638Z,94232.47
2018-06-29T13:52:11.869Z,94239.34
2018-06-29T13:54:43.079Z,94227.36
2018-06-29T13:57:13.142Z,94227.16
2018-06-29T13:59:43.087Z,94229.05
2018-06-29T14:02:13.126Z,94220.94
2018-06-29T14:04:43.130Z,94219.08
2018-06-29T14:07:13.737Z,94221.66
2018-06-29T14:09:43.679Z,94218.83
2018-06-29T14:12:13.999Z,94218.19
2018-06-29T14:14:43.847Z,94210.35
2018-06-29T14:17:14.243Z,94214.61
2018-06-29T14:19:44.399Z,94217.30
2018-06-29T14:22:14.472Z,94219.02
2018-06-29T14:24:44.675Z,94220.59
2018-06-29T14:27:14.860Z,94215.64
2018-06-29T14:29:44.897Z,94219.40
2018-06-29T14:32:15.211Z,94214.31
2018-06-29T14:34:45.339Z,94216.97
2018-06-29T14:37:16.394Z,94209.11
2018-06-29T14:39:46.981Z,94203.75
2018-06-29T14:42:16.914Z,94199.66
2018-06-29T14:44:46.914Z,94198.77
2018-06-29T14:47:17.316Z,94198.09
2018-06-29T14:49:47.198Z,94194.66
2018-06-29T14:52:17.500Z,94197.70
2018-06-29T14:54:48.001Z,94193.99
2018-06-29T14:57:17.936Z,94188.35
2018-06-29T14:59:48.654Z,94193.31
2018-06-29T15:02:18.788Z,94187.83
2018-06-29T15:04:48.923Z,94192.13
2018-06-29T15:07:18.912Z,94189.47
2018-06-29T15:09:49.802Z,94192.32
2018-06-29T15:12:23.134Z,94193.97
2018-06-29T15:14:53.946Z,94188.24
2018-06-29T15:17:26.916Z,94194.97
2018-06-29T15:19:58.242Z,94196.56
2018-06-29T15:22:28.839Z,94189.56
2018-06-29T15:25:00.010Z,94186.12
2018-06-29T15:27:40.324Z,94187.51
2018-06-29T15:30:11.743Z,94184.27
2018-06-29T15:32:44.680Z,94191.11
2018-06-29T15:35:17.712Z,94182.77
2018-06-29T15:37:52.890Z,94184.77
2018-06-29T15:40:25.376Z,94182.28
2018-06-29T15:42:58.247Z,94187.05
2018-06-29T15:45:29.381Z,94187.00
2018-06-29T15:48:02.435Z,94184.64
2018-06-29T15:50:33.896Z,94189.28
2018-06-29T15:53:12.402Z,94180.36
2018-06-29T15:55:43.820Z,94185.23
2018-06-29T15:58:15.021Z,94183.50
2018-06-29T16:00:46.807Z,94189.36
2018-06-29T16:03:16.803Z,94199.20
2018-06-29T16:05:47.074Z,94194.64
2018-06-29T16:08:18.676Z,94193.81
2018-06-29T16:10:54.410Z,94200.00
2018-06-29T16:13:26.037Z,94204.40
2018-06-29T16:16:00.385Z,94195.36
2018-06-29T16:18:30.723Z,94202.34
2018-06-29T16:21:04.748Z,94200.73
2018-06-29T16:23:41.530Z,94210.14
2018-06-29T16:26:19.319Z,94205.09
2018-06-29T16:28:52.541Z,94190.86
2018-06-29T16:31:31.186Z,94188.67
2018-06-29T16:34:03.920Z,94194.64
2018-06-29T16:36:53.185Z,94195.91
2018-06-29T16:39:28.662Z,94193.22
2018-06-29T16:42:05.606Z,94189.08
2018-06-29T16:44:35.641Z,94194.27
2018-06-29T16:47:10.700Z,94188.60
2018-06-29T16:49:41.869Z,94198.80
2018-06-29T16:52:13.593Z,94198.00
2018-06-29T16:54:46.686Z,94199.50
2018-06-29T16:57:20.348Z,94197.23
2018-06-29T16:59:50.662Z,94195.83
2018-06-29T17:02:21.580Z,94185.41
2018-06-29T17:04:52.975Z,94194.22
2018-06-29T17:07:23.469Z,94190.20
2018-06-29T17:09:57.997Z,94191.52
2018-06-29T17:12:29.077Z,94192.52
2018-06-29T17:15:00.637Z,94191.41
2018-06-29T17:17:32.466Z,94188.65
2018-06-29T17:20:02.982Z,94184.74
2018-06-29T17:22:33.142Z,94191.34
2018-06-29T17:25:03.881Z,94189.46
2018-06-29T17:27:38.705Z,94192.72
2018-06-29T17:30:11.138Z,94189.91
2018-06-29T17:32:43.455Z,94189.27
2018-06-29T17:35:17.640Z,94189.22
2018-06-29T17:37:48.028Z,94191.06
2018-06-29T17:40:19.420Z,94194.36
2018-06-29T17:42:50.767Z,94189.65
2018-06-29T17:45:22.315Z,94191.86
2018-06-29T17:47:53.324Z,94193.04
2018-06-29T17:50:25.226Z,94196.48
2018-06-29T17:52:55.651Z,94199.70
2018-06-29T17:55:26.674Z,94201.63
2018-06-29T17:57:57.967Z,94196.34
2018-06-29T18:00:29.369Z,94195.48
2018-06-29T18:03:03.030Z,94197.41
2018-06-29T18:05:33.911Z,94203.48
2018-06-29T18:08:04.189Z,94207.45
2018-06-29T18:10:34.842Z,94209.05
2018-06-29T18:13:05.139Z,94209.23
2018-06-29T18:15:35.545Z,94207.98
2018-06-29T18:18:06.009Z,94209.31
2018-06-29T18:20:36.997Z,94209.97
2018-06-29T18:23:07.727Z,94213.11
2018-06-29T18:25:37.716Z,94211.71
2018-06-29T18:28:08.216Z,94208.14
2018-06-29T18:30:39.296Z,94203.66
2018-06-29T18:33:14.442Z,94210.25
2018-06-29T18:35:45.702Z,94206.45
2018-06-29T18:38:17.040Z,94210.63
2018-06-29T18:40:47.709Z,94213.94
2018-06-29T18:43:18.013Z,94212.74
2018-06-29T18:45:48.606Z,94213.73
2018-06-29T18:48:19.196Z,94206.84
2018-06-29T18:50:49.837Z,94215.14
2018-06-29T18:53:19.860Z,94218.88
2018-06-29T18:55:50.316Z,94217.04
2018-06-29T18:58:20.279Z,94205.96
2018-06-29T19:00:50.952Z,94212.70
2018-06-29T19:03:21.826Z,94201.16
2018-06-29T19:05:52.696Z,94198.75
2018-06-29T19:08:23.629Z,94197.09
2018-06-29T19:10:54.564Z,94197.23
2018-06-29T19:13:24.827Z,94205.30
2018-06-29T19:15:55.910Z,94201.34
2018-06-29T19:18:26.105Z,94197.74
2018-06-29T19:20:56.605Z,94194.59
2018-06-29T19:23:27.584Z,94194.59
2018-06-29T19:25:58.185Z,94199.09
2018-06-29T19:28:28.337Z,94197.72
2018-06-29T19:30:58.932Z,94201.77
2018-06-29T19:33:29.692Z,94202.86
2018-06-29T19:36:00.765Z,94200.97
2018-06-29T19:38:31.396Z,94202.14
2018-06-29T19:41:02.076Z,94208.88
2018-06-29T19:43:32.389Z,94204.28
2018-06-29T19:46:03.092Z,94204.64
2018-06-29T19:48:33.517Z,94207.42
2018-06-29T19:51:04.941Z,94205.89
2018-06-29T19:53:35.672Z,94207.64
2018-06-29T19:56:06.755Z,94203.17
2018-06-29T19:58:38.620Z,94204.34
2018-06-29T20:01:09.141Z,94203.02
2018-06-29T20:03:39.331Z,94199.27
2018-06-29T20:06:09.872Z,94192.23
2018-06-29T20:08:40.380Z,94200.59
2018-06-29T20:11:11.027Z,94201.02
2018-06-29T20:13:42.107Z,94207.47
2018-06-29T20:16:12.768Z,94207.66
2018-06-29T20:18:43.279Z,94210.39
2018-06-29T20:21:13.986Z,94218.88
2018-06-29T20:23:44.871Z,94216.02
2018-06-29T20:26:15.935Z,94218.41
2018-06-29T20:28:47.629Z,94219.41
2018-06-29T20:31:18.275Z,94223.92
2018-06-29T20:33:49.636Z,94231.77
2018-06-29T20:36:20.267Z,94230.21
2018-06-29T20:38:50.737Z,94237.13
2018-06-29T20:41:21.084Z,94237.13
2018-06-29T20:43:51.618Z,94233.11
2018-06-29T20:46:22.594Z,94231.64
2018-06-29T20:48:54.078Z,94234.69
2018-06-29T20:51:26.096Z,94226.50
2018-06-29T20:53:57.659Z,94222.97
2018-06-29T20:56:28.490Z,94227.63
2018-06-29T20:58:59.255Z,94218.91
2018-06-29T21:01:29.906Z,94213.63
2018-06-29T21:04:00.557Z,94215.38
2018-06-29T21:06:31.511Z,94219.20
2018-06-29T21:09:02.702Z,94222.06
2018-06-29T21:11:33.960Z,94214.70
2018-06-29T21:14:04.401Z,94220.89
2018-06-29T21:16:34.537Z,94222.30
2018-06-29T21:19:05.681Z,94214.50
2018-06-29T21:21:35.739Z,94217.22
2018-06-29T21:24:06.325Z,94222.98
2018-06-29T21:26:36.283Z,94229.58
2018-06-29T21:29:07.658Z,94223.13
2018-06-29T21:31:37.848Z,94221.48
2018-06-29T21:34:08.296Z,94219.97
2018-06-29T21:36:40.039Z,94221.86
2018-06-29T21:39:12.083Z,94227.80
2018-06-29T21:41:42.059Z,94224.88
2018-06-29T21:44:12.516Z,94221.86
2018-06-29T21:46:43.056Z,94225.59
2018-06-29T21:49:13.191Z,94221.48
2018-06-29T21:51:43.365Z,94217.72
2018-06-29T21:54:13.841Z,94218.45
2018-06-29T21:56:44.411Z,94223.13
2018-06-29T21:59:14.615Z,94218.50
2018-06-29T22:01:46.124Z,94220.11
2018-06-29T22:04:16.486Z,94220.16
2018-06-29T22:06:47.251Z,94219.62
2018-06-29T22:09:18.025Z,94217.97
2018-06-29T22:11:48.505Z,94216.31
2018-06-29T22:14:18.783Z,94214.75
2018-06-29T22:16:48.872Z,94216.95
2018-06-29T22:19:18.964Z,94214.75
2018-06-29T22:21:49.223Z,94213.00
2018-06-29T22:24:19.169Z,94210.06
2018-06-29T22:26:49.951Z,94212.55
2018-06-29T22:29:20.380Z,94200.37
2018-06-29T22:31:50.802Z,94206.83
2018-06-29T22:34:21.086Z,94209.19
2018-06-29T22:36:51.129Z,94212.03
2018-06-29T22:39:21.619Z,94212.12
2018-06-29T22:41:51.665Z,94207.59
2018-06-29T22:44:21.890Z,94213.08
2018-06-29T22:46:52.266Z,94215.95
2018-06-29T22:49:22.659Z,94197.57
2018-06-29T22:51:52.660Z,94197.36
2018-06-29T22:54:23.797Z,94203.31
2018-06-29T22:56:54.382Z,94188.38
2018-06-29T22:59:25.191Z,94191.81
2018-06-29T23:01:55.477Z,94195.62
2018-06-29T23:04:25.518Z,94196.80
2018-06-29T23:06:56.530Z,94198.00
2018-06-29T23:09:27.977Z,94203.00
2018-06-29T23:11:58.160Z,94197.14
2018-06-29T23:14:29.053Z,94195.50
2018-06-29T23:16:59.379Z,94192.14
2018-06-29T23:19:29.864Z,94192.47
2018-06-29T23:22:00.273Z,94191.14
2018-06-29T23:24:31.128Z,94185.20
2018-06-29T23:27:01.585Z,94182.79
2018-06-29T23:29:32.602Z,94181.62
2018-06-29T23:32:04.003Z,94178.47
2018-06-29T23:34:34.942Z,94185.45
2018-06-29T23:37:05.656Z,94178.75
2018-06-29T23:39:36.196Z,94177.75
2018-06-29T23:42:06.548Z,94178.70
2018-06-29T23:44:37.088Z,94164.50
2018-06-29T23:47:07.719Z,94174.21
2018-06-29T23:49:37.868Z,94171.35
2018-06-29T23:52:09.008Z,94177.09
2018-06-29T23:54:39.171Z,94179.03
2018-06-29T23:57:09.638Z,94185.06
2018-06-29T23:59:39.779Z,94189.32
